createdAt,value
2022-08-09T00:01:55.483Z,16.23
2022-08-09T00:04:15.237Z,16.26
2022-08-09T00:06:33.592Z,16.22
2022-08-09T00:08:47.845Z,16.17
2022-08-09T00:11:24.648Z,16.16
2022-08-09T00:13:34.064Z,16.12
2022-08-09T00:16:00.084Z,16.10
2022-08-09T00:18:15.901Z,16.08
2022-08-09T00:20:31.795Z,16.12
2022-08-09T00:22:48.429Z,16.07
2022-08-09T00:24:55.440Z,16.13
2022-08-09T00:27:03.857Z,16.11
2022-08-09T00:29:12.203Z,16.08
2022-08-09T00:31:59.630Z,16.10
2022-08-09T00:34:09.143Z,16.09
2022-08-09T00:36:20.577Z,16.15
2022-08-09T00:38:28.542Z,16.13
2022-08-09T00:40:37.200Z,16.10
2022-08-09T00:44:13.140Z,16.11
2022-08-09T00:45:17.852Z,16.13
2022-08-09T00:47:26.239Z,16.08
2022-08-09T00:49:42.378Z,16.14
2022-08-09T00:51:58.431Z,16.11
2022-08-09T00:54:10.032Z,16.15
2022-08-09T00:56:18.993Z,16.11
2022-08-09T00:58:27.656Z,16.12
2022-08-09T01:00:35.175Z,16.13
2022-08-09T01:03:12.542Z,16.14
2022-08-09T01:05:54.823Z,16.12
2022-08-09T01:08:10.690Z,16.11
2022-08-09T01:10:35.845Z,16.01
2022-08-09T01:13:11.822Z,16.09
2022-08-09T01:15:22.611Z,16.03
2022-08-09T01:17:36.949Z,16.05
2022-08-09T01:20:02.840Z,16.11
2022-08-09T01:22:42.592Z,16.10
2022-08-09T01:25:07.212Z,16.11
2022-08-09T01:27:13.326Z,16.04
2022-08-09T01:29:20.191Z,16.03
2022-08-09T01:32:29.810Z,16.11
2022-08-09T01:34:04.156Z,16.07
2022-08-09T01:36:16.403Z,16.06
2022-08-09T01:38:28.767Z,16.00
2022-08-09T01:40:37.076Z,16.13
2022-08-09T01:42:43.275Z,16.14
2022-08-09T01:44:49.339Z,16.24
2022-08-09T01:46:53.990Z,16.32
2022-08-09T01:49:12.683Z,16.33
2022-08-09T01:51:22.980Z,16.49
2022-08-09T01:53:41.170Z,16.55
2022-08-09T01:55:48.781Z,16.62
2022-08-09T01:57:56.176Z,16.64
2022-08-09T02:00:19.202Z,16.77
2022-08-09T02:02:30.806Z,16.80
2022-08-09T02:04:40.590Z,16.83
2022-08-09T02:06:58.859Z,16.80
2022-08-09T02:09:02.217Z,16.84
2022-08-09T02:11:16.700Z,16.85
2022-08-09T02:13:26.253Z,16.87
2022-08-09T02:15:50.542Z,16.82
2022-08-09T02:18:09.556Z,16.72
2022-08-09T02:20:15.879Z,16.79
2022-08-09T02:22:38.059Z,16.76
2022-08-09T02:24:51.765Z,16.71
2022-08-09T02:26:59.669Z,16.61
2022-08-09T02:29:14.391Z,16.57
2022-08-09T02:31:32.705Z,16.50
2022-08-09T02:34:07.467Z,16.50
2022-08-09T02:36:14.742Z,16.58
2022-08-09T02:38:29.715Z,16.65
2022-08-09T02:40:36.763Z,16.70
2022-08-09T02:42:46.381Z,16.75
2022-08-09T02:45:08.684Z,16.73
2022-08-09T02:47:14.689Z,16.81
2022-08-09T02:49:19.813Z,16.82
2022-08-09T02:51:40.484Z,16.82
2022-08-09T02:53:52.907Z,16.84
2022-08-09T02:56:07.190Z,16.83
2022-08-09T02:58:37.911Z,16.91
2022-08-09T03:00:57.951Z,16.91
2022-08-09T03:03:02.834Z,16.87
2022-08-09T03:05:11.301Z,16.94
2022-08-09T03:07:21.076Z,16.82
2022-08-09T03:09:24.822Z,16.81
2022-08-09T03:12:04.553Z,16.73
2022-08-09T03:13:59.682Z,16.64
2022-08-09T03:16:06.555Z,16.53
2022-08-09T03:18:12.154Z,16.54
2022-08-09T03:20:15.736Z,16.44
2022-08-09T03:22:30.433Z,16.43
2022-08-09T03:24:42.802Z,16.44
2022-08-09T03:26:56.333Z,16.40
2022-08-09T03:28:59.849Z,16.39
2022-08-09T03:31:21.114Z,16.44
2022-08-09T03:33:54.166Z,16.40
2022-08-09T03:36:15.628Z,16.45
2022-08-09T03:38:28.660Z,16.41
2022-08-09T03:40:33.805Z,16.40
2022-08-09T03:42:36.722Z,16.41
2022-08-09T03:44:41.599Z,16.27
2022-08-09T03:46:46.652Z,16.47
2022-08-09T03:48:56.974Z,16.55
2022-08-09T03:51:03.763Z,16.53
2022-08-09T03:53:10.740Z,16.55
2022-08-09T03:55:14.653Z,16.47
2022-08-09T03:57:24.354Z,16.60
2022-08-09T03:59:52.769Z,16.65
2022-08-09T04:01:50.911Z,16.75
2022-08-09T04:04:01.427Z,16.65
2022-08-09T04:06:07.145Z,16.69
2022-08-09T04:08:09.521Z,16.66
2022-08-09T04:10:11.896Z,16.66
2022-08-09T04:12:30.148Z,16.67
2022-08-09T04:14:53.916Z,16.60
2022-08-09T04:17:00.680Z,16.48
2022-08-09T04:19:02.739Z,16.36
2022-08-09T04:21:13.111Z,16.31
2022-08-09T04:23:17.719Z,16.45
2022-08-09T04:25:25.305Z,16.58
2022-08-09T04:27:29.112Z,16.77
2022-08-09T04:29:31.477Z,16.92
2022-08-09T04:31:37.521Z,17.05
2022-08-09T04:33:56.795Z,17.21
2022-08-09T04:36:01.975Z,17.34
2022-08-09T04:38:05.133Z,17.62
2022-08-09T04:40:09.350Z,17.96
2022-08-09T04:42:12.349Z,18.16
2022-08-09T04:44:18.145Z,18.17
2022-08-09T04:46:38.317Z,18.27
2022-08-09T04:48:50.362Z,18.33
2022-08-09T04:51:00.319Z,18.34
2022-08-09T04:53:03.958Z,18.28
2022-08-09T04:55:12.340Z,18.35
2022-08-09T04:57:15.525Z,18.24
2022-08-09T04:59:23.527Z,18.39
2022-08-09T05:01:26.202Z,18.43
2022-08-09T05:03:40.946Z,18.37
2022-08-09T05:05:52.588Z,18.32
2022-08-09T05:08:07.093Z,18.41
2022-08-09T05:10:10.068Z,18.43
2022-08-09T05:12:12.575Z,18.43
2022-08-09T05:14:14.942Z,18.51
2022-08-09T05:16:18.901Z,18.49
2022-08-09T05:18:55.366Z,18.52
2022-08-09T05:20:52.998Z,18.52
2022-08-09T05:23:55.452Z,18.32
2022-08-09T05:25:17.644Z,18.36
2022-08-09T05:27:20.956Z,18.47
2022-08-09T05:29:31.166Z,18.50
2022-08-09T05:31:47.413Z,18.56
2022-08-09T05:33:52.942Z,18.68
2022-08-09T05:35:57.242Z,18.80
2022-08-09T05:37:59.431Z,18.86
2022-08-09T05:40:01.838Z,18.91
2022-08-09T05:42:06.054Z,18.95
2022-08-09T05:44:08.241Z,18.98
2022-08-09T05:46:11.410Z,19.05
2022-08-09T05:48:14.113Z,19.03
2022-08-09T05:50:25.456Z,19.09
2022-08-09T05:52:52.306Z,19.02
2022-08-09T05:55:06.708Z,18.99
2022-08-09T05:57:12.829Z,19.00
2022-08-09T05:59:20.942Z,19.09
2022-08-09T06:01:34.162Z,19.08
2022-08-09T06:03:58.193Z,19.12
2022-08-09T06:06:05.739Z,19.20
2022-08-09T06:08:12.949Z,19.26
2022-08-09T06:10:19.740Z,19.21
2022-08-09T06:12:26.359Z,19.42
2022-08-09T06:14:28.899Z,19.45
2022-08-09T06:16:31.092Z,19.52
2022-08-09T06:18:34.973Z,19.56
2022-08-09T06:20:38.781Z,19.73
2022-08-09T06:22:42.462Z,19.79
2022-08-09T06:24:48.100Z,19.89
2022-08-09T06:26:52.331Z,19.97
2022-08-09T06:29:00.260Z,20.03
2022-08-09T06:31:06.471Z,20.02
2022-08-09T06:33:40.752Z,20.08
2022-08-09T06:35:55.848Z,19.92
2022-08-09T06:38:06.797Z,20.04
2022-08-09T06:40:20.285Z,20.07
2022-08-09T06:42:28.534Z,20.11
2022-08-09T06:44:34.685Z,20.07
2022-08-09T06:46:39.501Z,20.04
2022-08-09T06:48:45.560Z,20.06
2022-08-09T06:50:49.130Z,20.08
2022-08-09T06:52:55.540Z,20.03
2022-08-09T06:55:00.830Z,20.03
2022-08-09T06:57:16.094Z,19.96
2022-08-09T07:00:51.427Z,19.90
2022-08-09T07:01:54.414Z,20.03
2022-08-09T07:04:06.300Z,20.07
2022-08-09T07:06:13.080Z,20.06
2022-08-09T07:08:18.674Z,20.07
2022-08-09T07:10:32.030Z,20.21
2022-08-09T07:12:38.564Z,20.20
2022-08-09T07:14:44.914Z,20.17
2022-08-09T07:16:55.332Z,20.28
2022-08-09T07:19:00.331Z,20.31
2022-08-09T07:21:03.231Z,20.29
2022-08-09T07:23:18.633Z,20.25
2022-08-09T07:25:22.073Z,20.28
2022-08-09T07:27:34.380Z,20.29
2022-08-09T07:29:46.247Z,20.33
2022-08-09T07:31:49.162Z,20.38
2022-08-09T07:33:53.296Z,20.39
2022-08-09T07:35:59.433Z,20.51
2022-08-09T07:38:03.241Z,20.71
2022-08-09T07:40:06.151Z,20.73
2022-08-09T07:42:10.311Z,20.95
2022-08-09T07:44:12.560Z,20.95
2022-08-09T07:46:19.145Z,21.19
2022-08-09T07:48:28.393Z,21.32
2022-08-09T07:50:36.330Z,21.41
2022-08-09T07:52:39.071Z,21.54
2022-08-09T07:54:41.912Z,21.72
2022-08-09T07:56:49.413Z,21.86
2022-08-09T07:58:52.315Z,22.05
2022-08-09T08:00:58.771Z,22.20
2022-08-09T08:03:09.809Z,22.33
2022-08-09T08:05:18.102Z,22.46
2022-08-09T08:08:43.499Z,22.66
2022-08-09T08:09:53.571Z,22.95
2022-08-09T08:12:24.707Z,23.15
2022-08-09T08:14:35.749Z,23.32
2022-08-09T08:16:40.221Z,23.34
2022-08-09T08:19:04.816Z,23.46
2022-08-09T08:21:08.648Z,23.35
2022-08-09T08:23:16.821Z,23.38
2022-08-09T08:25:22.496Z,23.37
2022-08-09T08:27:45.120Z,23.40
2022-08-09T08:29:54.719Z,23.49
2022-08-09T08:32:03.273Z,23.49
2022-08-09T08:34:08.843Z,23.49
2022-08-09T08:36:28.267Z,23.65
2022-08-09T08:38:33.105Z,23.61
2022-08-09T08:40:42.527Z,23.62
2022-08-09T08:42:53.490Z,23.69
2022-08-09T08:45:13.588Z,23.84
2022-08-09T08:47:18.350Z,23.92
2022-08-09T08:49:28.147Z,23.94
2022-08-09T08:52:01.941Z,23.97
2022-08-09T08:54:11.351Z,24.04
2022-08-09T08:56:25.244Z,23.99
2022-08-09T08:58:36.157Z,24.19
2022-08-09T09:00:46.844Z,24.20
2022-08-09T09:03:08.588Z,24.14
2022-08-09T09:05:33.333Z,23.90
2022-08-09T09:07:48.405Z,23.64
2022-08-09T09:10:02.027Z,23.71
2022-08-09T09:12:16.411Z,23.60
2022-08-09T09:14:26.750Z,23.55
2022-08-09T09:16:35.789Z,23.48
2022-08-09T09:18:48.795Z,23.39
2022-08-09T09:21:03.765Z,23.37
2022-08-09T09:23:49.950Z,23.30
2022-08-09T09:26:26.163Z,23.22
2022-08-09T09:28:58.921Z,23.32
2022-08-09T09:31:00.640Z,23.41
2022-08-09T09:33:17.396Z,23.41
2022-08-09T09:35:21.012Z,23.45
2022-08-09T09:37:33.931Z,23.62
2022-08-09T09:39:55.507Z,23.68
2022-08-09T09:42:08.927Z,23.66
2022-08-09T09:44:25.325Z,23.65
2022-08-09T09:46:45.713Z,23.69
2022-08-09T09:49:06.357Z,23.80
2022-08-09T09:51:11.686Z,23.84
2022-08-09T09:53:44.199Z,23.79
2022-08-09T09:56:05.259Z,23.91
2022-08-09T09:58:15.823Z,23.99
2022-08-09T10:00:26.479Z,24.12
2022-08-09T10:02:29.374Z,24.25
2022-08-09T10:04:32.436Z,24.31
2022-08-09T10:06:47.100Z,24.48
2022-08-09T10:09:02.747Z,24.56
2022-08-09T10:11:59.525Z,24.47
2022-08-09T10:13:46.392Z,24.38
2022-08-09T10:16:54.881Z,24.33
2022-08-09T10:18:15.402Z,24.38
2022-08-09T10:20:27.512Z,24.43
2022-08-09T10:22:38.271Z,24.40
2022-08-09T10:24:43.918Z,24.41
2022-08-09T10:26:53.081Z,24.52
2022-08-09T10:29:21.353Z,24.49
2022-08-09T10:34:09.776Z,24.60
2022-08-09T10:36:20.561Z,24.72
2022-08-09T10:38:34.456Z,24.80
2022-08-09T10:40:50.985Z,24.84
2022-08-09T10:42:57.891Z,24.99
2022-08-09T10:45:10.734Z,24.99
2022-08-09T10:48:20.184Z,24.99
2022-08-09T10:50:33.601Z,25.00
2022-08-09T10:52:45.894Z,25.21
2022-08-09T10:54:48.201Z,25.37
2022-08-09T10:57:11.830Z,25.58
2022-08-09T10:59:30.947Z,25.58
2022-08-09T11:03:14.212Z,25.62
2022-08-09T11:04:29.800Z,25.77
2022-08-09T11:06:32.385Z,25.82
2022-08-09T11:08:47.742Z,25.73
2022-08-09T11:10:56.590Z,25.67
2022-08-09T11:13:51.426Z,25.65
2022-08-09T11:16:04.380Z,25.72
2022-08-09T11:18:11.290Z,25.83
2022-08-09T11:20:54.664Z,26.12
2022-08-09T11:25:46.135Z,25.99
2022-08-09T11:28:56.457Z,26.22
2022-08-09T11:32:13.125Z,26.29
2022-08-09T11:34:55.800Z,26.27
2022-08-09T11:40:35.931Z,26.27
2022-08-09T11:46:00.920Z,26.01
2022-08-09T11:48:58.701Z,26.11
2022-08-09T11:53:02.062Z,26.17
2022-08-09T12:12:05.220Z,26.26
2022-08-09T12:15:08.279Z,26.41
2022-08-09T12:18:30.137Z,26.24
2022-08-09T12:21:50.251Z,26.23
2022-08-09T12:24:53.649Z,26.02
2022-08-09T12:29:52.710Z,26.06
2022-08-09T12:30:42.606Z,26.12
2022-08-09T12:33:15.858Z,26.43
2022-08-09T12:36:27.365Z,26.40
2022-08-09T12:40:05.704Z,26.61
2022-08-09T12:47:12.377Z,26.43
2022-08-09T12:52:18.199Z,26.39
2022-08-09T13:34:08.777Z,25.26
2022-08-09T13:36:39.606Z,25.31
2022-08-09T13:41:55.512Z,25.65
2022-08-09T13:42:18.206Z,25.70
2022-08-09T13:44:48.712Z,25.85
2022-08-09T13:47:26.917Z,25.97
2022-08-09T13:53:41.212Z,25.84
2022-08-09T13:56:37.777Z,25.74
2022-08-09T13:59:42.116Z,25.16
2022-08-09T14:02:26.036Z,24.91
2022-08-09T14:04:49.377Z,24.93
2022-08-09T14:08:15.913Z,24.63
2022-08-09T14:14:26.873Z,24.44
2022-08-09T14:16:42.360Z,24.50
2022-08-09T14:18:59.906Z,24.39
2022-08-09T14:21:02.769Z,24.27
2022-08-09T14:23:22.772Z,24.39
2022-08-09T14:25:42.650Z,24.47
2022-08-09T14:27:56.769Z,24.71
2022-08-09T14:30:35.528Z,24.86
2022-08-09T14:37:41.268Z,25.01
2022-08-09T14:39:57.991Z,24.89
2022-08-09T14:42:38.529Z,24.98
2022-08-09T14:46:46.657Z,25.03
2022-08-09T14:48:36.667Z,25.04
2022-08-09T14:50:39.727Z,24.96
2022-08-09T14:52:42.166Z,24.97
2022-08-09T14:54:57.741Z,24.89
2022-08-09T14:59:55.977Z,24.77
2022-08-09T15:02:01.857Z,24.86
2022-08-09T15:04:38.478Z,24.63
2022-08-09T15:10:14.075Z,24.43
2022-08-09T15:12:25.696Z,24.41
2022-08-09T15:14:43.774Z,24.40
2022-08-09T15:16:49.230Z,24.62
2022-08-09T15:18:59.819Z,24.65
2022-08-09T15:21:55.733Z,24.72
2022-08-09T15:24:06.020Z,24.77
2022-08-09T15:25:58.257Z,24.88
2022-08-09T15:28:02.659Z,24.87
2022-08-09T15:31:00.390Z,24.83
2022-08-09T15:32:30.464Z,24.73
2022-08-09T15:34:35.330Z,24.84
2022-08-09T15:36:58.229Z,24.79
2022-08-09T15:39:05.344Z,24.77
2022-08-09T15:41:22.013Z,24.64
2022-08-09T15:43:24.983Z,24.42
2022-08-09T15:46:07.662Z,24.43
2022-08-09T15:48:28.151Z,24.38
2022-08-09T15:50:30.569Z,24.39
2022-08-09T15:52:37.044Z,24.37
2022-08-09T15:54:48.358Z,24.39
2022-08-09T15:56:54.610Z,24.46
2022-08-09T15:59:00.309Z,24.47
2022-08-09T16:01:07.548Z,24.68
2022-08-09T16:03:11.470Z,24.74
2022-08-09T16:05:53.298Z,24.80
2022-08-09T16:07:52.230Z,24.79
2022-08-09T16:10:02.292Z,24.66
2022-08-09T16:12:11.347Z,24.72
2022-08-09T16:14:14.290Z,24.67
2022-08-09T16:16:28.272Z,24.62
2022-08-09T16:18:32.969Z,24.52
2022-08-09T16:20:41.704Z,24.39
2022-08-09T16:22:48.770Z,24.30
2022-08-09T16:24:56.945Z,24.36
2022-08-09T16:27:05.172Z,24.30
2022-08-09T16:29:12.793Z,24.25
2022-08-09T16:32:11.081Z,24.26
2022-08-09T16:34:02.741Z,24.23
2022-08-09T16:36:13.146Z,24.28
2022-08-09T16:38:18.790Z,24.20
2022-08-09T16:40:29.954Z,24.16
2022-08-09T16:42:45.418Z,24.05
2022-08-09T16:44:48.002Z,24.05
2022-08-09T16:46:55.088Z,24.02
2022-08-09T16:49:18.709Z,23.99
2022-08-09T16:51:23.208Z,23.98
2022-08-09T16:53:32.212Z,23.96
2022-08-09T16:56:01.388Z,23.92
2022-08-09T16:58:09.395Z,23.86
2022-08-09T17:00:17.430Z,23.97
2022-08-09T17:02:23.322Z,23.95
2022-08-09T17:04:28.599Z,23.91
2022-08-09T17:06:33.333Z,23.89
2022-08-09T17:08:47.003Z,23.97
2022-08-09T17:11:03.549Z,23.89
2022-08-09T17:13:10.665Z,23.88
2022-08-09T17:15:30.748Z,23.81
2022-08-09T17:17:50.761Z,23.76
2022-08-09T17:20:32.891Z,23.65
2022-08-09T17:22:25.144Z,23.61
2022-08-09T17:24:35.269Z,23.43
2022-08-09T17:26:47.712Z,23.44
2022-08-09T17:28:56.149Z,23.32
2022-08-09T17:30:59.759Z,23.25
2022-08-09T17:33:05.044Z,23.20
2022-08-09T17:35:12.724Z,23.08
2022-08-09T17:37:19.696Z,22.93
2022-08-09T17:39:25.455Z,22.79
2022-08-09T17:41:49.942Z,22.75
2022-08-09T17:44:41.716Z,22.69
2022-08-09T17:46:16.399Z,22.60
2022-08-09T17:48:29.268Z,22.52
2022-08-09T17:50:36.773Z,22.50
2022-08-09T17:52:40.466Z,22.45
2022-08-09T17:54:45.470Z,22.46
2022-08-09T17:56:52.229Z,22.41
2022-08-09T17:58:56.830Z,22.36
2022-08-09T18:00:59.330Z,22.28
2022-08-09T18:03:01.714Z,22.11
2022-08-09T18:05:04.418Z,22.16
2022-08-09T18:07:07.785Z,22.08
2022-08-09T18:09:10.400Z,21.96
2022-08-09T18:11:16.201Z,21.96
2022-08-09T18:13:38.845Z,21.86
2022-08-09T18:16:05.456Z,21.77
2022-08-09T18:18:08.115Z,21.71
2022-08-09T18:21:00.836Z,21.63
2022-08-09T18:22:40.949Z,21.61
2022-08-09T18:24:53.360Z,21.50
2022-08-09T18:26:55.877Z,21.50
2022-08-09T18:30:39.440Z,21.46
2022-08-09T18:31:32.167Z,21.34
2022-08-09T18:33:53.112Z,21.26
2022-08-09T18:35:59.163Z,21.21
2022-08-09T18:38:02.449Z,21.15
2022-08-09T18:40:06.391Z,21.14
2022-08-09T18:42:14.789Z,21.07
2022-08-09T18:44:20.508Z,21.07
2022-08-09T18:46:51.472Z,20.98
2022-08-09T18:48:54.688Z,20.97
2022-08-09T18:51:06.009Z,20.87
2022-08-09T18:53:16.249Z,20.75
2022-08-09T18:55:45.635Z,20.65
2022-08-09T18:57:45.365Z,20.61
2022-08-09T19:00:01.486Z,20.51
2022-08-09T19:02:06.366Z,20.43
2022-08-09T19:04:09.356Z,20.33
2022-08-09T19:06:14.613Z,20.37
2022-08-09T19:08:22.070Z,20.29
2022-08-09T19:10:37.148Z,20.22
2022-08-09T19:12:55.519Z,20.14
2022-08-09T19:15:12.190Z,20.14
2022-08-09T19:17:16.348Z,20.09
2022-08-09T19:27:34.212Z,20.06
2022-08-09T19:30:25.247Z,19.99
2022-08-09T19:32:08.959Z,19.97
2022-08-09T19:34:22.193Z,19.82
2022-08-09T19:36:34.748Z,19.86
2022-08-09T19:38:39.819Z,19.86
2022-08-09T19:40:43.051Z,19.80
2022-08-09T19:42:49.720Z,19.81
2022-08-09T19:44:52.285Z,19.62
2022-08-09T19:46:54.683Z,19.66
2022-08-09T19:49:01.465Z,19.64
2022-08-09T19:51:05.659Z,19.62
2022-08-09T19:53:14.012Z,19.53
2022-08-09T19:55:16.967Z,19.56
2022-08-09T19:57:25.933Z,19.46
2022-08-09T19:59:58.343Z,19.46
2022-08-09T20:01:52.384Z,19.40
2022-08-09T20:04:25.089Z,19.34
2022-08-09T20:06:33.893Z,19.26
2022-08-09T20:08:38.836Z,19.18
2022-08-09T20:10:42.218Z,19.07
2022-08-09T20:12:49.042Z,19.10
2022-08-09T20:16:31.712Z,19.01
2022-08-09T20:17:54.570Z,18.90
2022-08-09T20:20:42.768Z,18.90
2022-08-09T20:22:48.857Z,18.82
2022-08-09T20:24:59.103Z,18.78
2022-08-09T20:27:11.572Z,18.77
2022-08-09T20:29:24.341Z,18.75
2022-08-09T20:31:51.412Z,18.71
2022-08-09T20:34:09.997Z,18.68
2022-08-09T20:36:33.087Z,18.59
2022-08-09T20:39:28.507Z,18.59
2022-08-09T20:41:41.486Z,18.52
2022-08-09T20:43:59.551Z,18.48
2022-08-09T20:46:41.621Z,18.42
2022-08-09T20:48:40.355Z,18.38
2022-08-09T20:50:47.066Z,18.29
2022-08-09T20:52:50.409Z,18.25
2022-08-09T20:54:56.057Z,18.22
2022-08-09T20:57:00.615Z,18.19
2022-08-09T20:59:03.028Z,18.08
2022-08-09T21:01:32.422Z,18.14
2022-08-09T21:03:31.711Z,18.15
2022-08-09T21:05:59.604Z,18.09
2022-08-09T21:08:04.496Z,18.01
2022-08-09T21:10:07.460Z,17.99
2022-08-09T21:14:18.082Z,17.96
2022-08-09T21:16:30.253Z,18.08
2022-08-09T21:20:02.415Z,18.26
2022-08-09T21:21:17.172Z,18.39
2022-08-09T21:23:21.808Z,18.40
2022-08-09T21:25:38.607Z,18.48
2022-08-09T21:27:52.639Z,18.53
2022-08-09T21:30:08.286Z,18.76
2022-08-09T21:32:15.384Z,18.89
2022-08-09T21:34:29.331Z,18.93
2022-08-09T21:36:32.167Z,18.83
2022-08-09T21:38:34.417Z,18.55
2022-08-09T21:40:41.961Z,18.50
2022-08-09T21:42:54.422Z,18.36
2022-08-09T21:45:01.342Z,18.24
2022-08-09T21:47:26.850Z,18.06
2022-08-09T21:49:42.690Z,17.81
2022-08-09T21:51:45.401Z,17.72
2022-08-09T21:53:47.876Z,17.55
2022-08-09T21:55:53.808Z,17.36
2022-08-09T21:58:00.332Z,17.21
2022-08-09T22:00:13.491Z,17.26
2022-08-09T22:02:17.726Z,17.23
2022-08-09T22:04:57.312Z,17.24
2022-08-09T22:07:07.401Z,17.12
2022-08-09T22:09:19.782Z,16.98
2022-08-09T22:12:09.135Z,16.88
2022-08-09T22:13:45.552Z,16.88
2022-08-09T22:15:47.943Z,16.96
2022-08-09T22:17:54.780Z,16.83
2022-08-09T22:20:00.294Z,16.99
2022-08-09T22:22:04.102Z,16.97
2022-08-09T22:24:07.186Z,17.04
2022-08-09T22:26:12.846Z,16.97
2022-08-09T22:28:32.799Z,17.07
2022-08-09T22:30:36.710Z,16.99
2022-08-09T22:32:39.138Z,17.07
2022-08-09T22:34:41.652Z,17.11
2022-08-09T22:36:46.384Z,17.27
2022-08-09T22:38:49.092Z,17.28
2022-08-09T22:40:57.752Z,17.36
2022-08-09T22:43:16.125Z,17.35
2022-08-09T22:48:10.523Z,17.39
2022-08-09T22:48:12.886Z,17.44
2022-08-09T22:50:11.077Z,17.56
2022-08-09T22:52:18.951Z,17.56
2022-08-09T22:54:23.223Z,17.59
2022-08-09T22:56:34.021Z,17.56
2022-08-09T22:58:37.931Z,17.43
2022-08-09T23:00:44.842Z,17.61
2022-08-09T23:02:51.930Z,17.60
2022-08-09T23:04:58.832Z,17.54
2022-08-09T23:07:10.928Z,17.52
2022-08-09T23:09:14.263Z,17.39
2022-08-09T23:11:22.470Z,17.33
2022-08-09T23:13:25.337Z,17.34
2022-08-09T23:15:29.883Z,17.24
2022-08-09T23:17:32.665Z,17.26
2022-08-09T23:20:01.047Z,17.41
2022-08-09T23:21:57.665Z,17.30
2022-08-09T23:24:05.995Z,17.28
2022-08-09T23:26:09.471Z,17.29
2022-08-09T23:28:15.780Z,17.23
2022-08-09T23:30:18.988Z,17.34
2022-08-09T23:32:22.389Z,17.29
2022-08-09T23:34:24.897Z,17.13
2022-08-09T23:36:27.593Z,17.12
2022-08-09T23:38:29.819Z,17.05
2022-08-09T23:40:32.617Z,17.13
2022-08-09T23:42:35.593Z,17.01
2022-08-09T23:44:38.193Z,17.10
2022-08-09T23:46:41.948Z,17.07
2022-08-09T23:48:46.277Z,17.12
2022-08-09T23:50:50.375Z,17.09
2022-08-09T23:52:57.352Z,17.12
2022-08-09T23:55:01.524Z,17.11
2022-08-09T23:57:06.463Z,17.13
2022-08-09T23:59:11.603Z,17.11
